AUA57MP LOWW-LIRN
Flight info
| Callsign | AUA57MP |
|---|---|
| Flight time | 1h 17m |
| Altitude | 34000 |
| Route | STEIN3C/29 STEIN DCT NOHAT DCT NEKIN DCT NIVES/N0439F350 DCT XAMIT DCT SUXUB DCT ERIKA ERIKA1A |
| Aircraft | A321/M-SDE2E3FGIJ1RWXY/LB1 |
Departure
| Time | 2026-04-25 16:59 |
|---|---|
| Airport | Vienna International Airport (LOWW) |
Arrival
| Time | 2026-04-25 18:16 |
|---|---|
| Airport | Naples International Airport (LIRN) |
| Time | Latitude | Longitude | Altitude | Speed | Heading |
|---|---|---|---|---|---|
| 2026-04-25 16:45 | 48.11848 | 16.56934 | 615 ft | 0 kts | 206° |
| 2026-04-25 16:52 | 48.11866 | 16.56947 | 633 ft | 4 kts | 206° |
| 2026-04-25 16:52 | 48.11886 | 16.56962 | 626 ft | 4 kts | 201° |
| 2026-04-25 16:53 | 48.11922 | 16.56937 | 625 ft | 2 kts | 116° |
| 2026-04-25 16:53 | 48.11923 | 16.56935 | 624 ft | 0 kts | 116° |
| 2026-04-25 16:55 | 48.11922 | 16.56937 | 625 ft | 2 kts | 116° |
| 2026-04-25 16:55 | 48.11908 | 16.56979 | 625 ft | 6 kts | 116° |
| 2026-04-25 16:55 | 48.11876 | 16.57078 | 615 ft | 15 kts | 116° |
| 2026-04-25 16:55 | 48.11843 | 16.57252 | 620 ft | 19 kts | 119° |
| 2026-04-25 16:56 | 48.11807 | 16.57444 | 621 ft | 19 kts | 118° |
| 2026-04-25 16:56 | 48.11684 | 16.57524 | 618 ft | 21 kts | 164° |
| 2026-04-25 16:56 | 48.11533 | 16.57587 | 616 ft | 24 kts | 164° |
| 2026-04-25 16:56 | 48.11365 | 16.57659 | 622 ft | 26 kts | 164° |
| 2026-04-25 16:57 | 48.11199 | 16.57638 | 619 ft | 18 kts | 208° |
| 2026-04-25 16:57 | 48.11142 | 16.57599 | 621 ft | 10 kts | 189° |
| 2026-04-25 16:57 | 48.11085 | 16.57637 | 626 ft | 7 kts | 150° |
| 2026-04-25 16:57 | 48.11025 | 16.57633 | 615 ft | 11 kts | 204° |
| 2026-04-25 16:58 | 48.10942 | 16.57574 | 621 ft | 15 kts | 206° |
| 2026-04-25 16:58 | 48.10953 | 16.57417 | 621 ft | 20 kts | 296° |
| 2026-04-25 16:58 | 48.11107 | 16.56947 | 627 ft | 87 kts | 295° |
| 2026-04-25 16:58 | 48.11469 | 16.55831 | 618 ft | 149 kts | 295° |
| 2026-04-25 16:59 | 48.11967 | 16.54298 | 1029 ft | 166 kts | 294° |
| 2026-04-25 16:59 | 48.12168 | 16.52613 | 1735 ft | 172 kts | 257° |
| 2026-04-25 16:59 | 48.11501 | 16.51065 | 2124 ft | 190 kts | 230° |
| 2026-04-25 16:59 | 48.10427 | 16.49782 | 2478 ft | 207 kts | 217° |
| 2026-04-25 17:00 | 48.09134 | 16.48558 | 2740 ft | 232 kts | 215° |
| 2026-04-25 17:00 | 48.07602 | 16.47497 | 3161 ft | 255 kts | 197° |
| 2026-04-25 17:00 | 48.05762 | 16.47392 | 3722 ft | 272 kts | 177° |
| 2026-04-25 17:00 | 48.03866 | 16.47775 | 4453 ft | 278 kts | 174° |
| 2026-04-25 17:01 | 48.01942 | 16.48188 | 5211 ft | 281 kts | 174° |
| 2026-04-25 17:01 | 48.00017 | 16.48583 | 5999 ft | 283 kts | 175° |
| 2026-04-25 17:01 | 47.98034 | 16.48948 | 6783 ft | 284 kts | 177° |
| 2026-04-25 17:01 | 47.96020 | 16.49326 | 7229 ft | 301 kts | 175° |
| 2026-04-25 17:02 | 47.93907 | 16.49771 | 7518 ft | 320 kts | 174° |
| 2026-04-25 17:02 | 47.91632 | 16.50246 | 7781 ft | 339 kts | 174° |
| 2026-04-25 17:02 | 47.89231 | 16.50740 | 8041 ft | 358 kts | 174° |
| 2026-04-25 17:02 | 47.86669 | 16.51261 | 8288 ft | 375 kts | 175° |
| 2026-04-25 17:03 | 47.84037 | 16.51791 | 8569 ft | 388 kts | 175° |
| 2026-04-25 17:03 | 47.81340 | 16.52334 | 9113 ft | 393 kts | 175° |
| 2026-04-25 17:03 | 47.78617 | 16.52882 | 9734 ft | 396 kts | 175° |
| 2026-04-25 17:03 | 47.75875 | 16.53430 | 10269 ft | 399 kts | 175° |
| 2026-04-25 17:04 | 47.73109 | 16.53983 | 10773 ft | 403 kts | 175° |
| 2026-04-25 17:04 | 47.70325 | 16.54541 | 11285 ft | 406 kts | 175° |
| 2026-04-25 17:04 | 47.67505 | 16.55100 | 11779 ft | 410 kts | 175° |
| 2026-04-25 17:04 | 47.64667 | 16.55662 | 12260 ft | 414 kts | 175° |
| 2026-04-25 17:05 | 47.62764 | 16.55980 | 12600 ft | 415 kts | 178° |
| 2026-04-25 17:05 | 47.55957 | 16.56768 | 13679 ft | 424 kts | 179° |
| 2026-04-25 17:05 | 47.53051 | 16.57103 | 14107 ft | 427 kts | 178° |
| 2026-04-25 17:06 | 47.50076 | 16.57457 | 14539 ft | 430 kts | 178° |
| 2026-04-25 17:06 | 47.47083 | 16.57815 | 14983 ft | 433 kts | 178° |
| 2026-04-25 17:06 | 47.44070 | 16.58177 | 15416 ft | 435 kts | 178° |
| 2026-04-25 17:06 | 47.41046 | 16.58540 | 15856 ft | 437 kts | 178° |
| 2026-04-25 17:07 | 47.38006 | 16.58905 | 16316 ft | 439 kts | 178° |
| 2026-04-25 17:07 | 47.34955 | 16.59271 | 16751 ft | 441 kts | 178° |
| 2026-04-25 17:07 | 47.31891 | 16.59638 | 17188 ft | 443 kts | 178° |
| 2026-04-25 17:07 | 47.28813 | 16.60006 | 17630 ft | 445 kts | 178° |
| 2026-04-25 17:08 | 47.25725 | 16.60375 | 18131 ft | 445 kts | 178° |
| 2026-04-25 17:08 | 47.22638 | 16.60742 | 18603 ft | 444 kts | 178° |
| 2026-04-25 17:08 | 47.19560 | 16.61109 | 19056 ft | 444 kts | 178° |
| 2026-04-25 17:08 | 47.16486 | 16.61477 | 19535 ft | 443 kts | 178° |
| 2026-04-25 17:09 | 47.13422 | 16.61838 | 20024 ft | 441 kts | 178° |
| 2026-04-25 17:09 | 47.10367 | 16.62201 | 20523 ft | 440 kts | 178° |
| 2026-04-25 17:09 | 47.07315 | 16.62565 | 21025 ft | 439 kts | 179° |
| 2026-04-25 17:09 | 47.04276 | 16.62925 | 21541 ft | 437 kts | 179° |
| 2026-04-25 17:10 | 47.01250 | 16.63281 | 22060 ft | 436 kts | 179° |
| 2026-04-25 17:10 | 46.98230 | 16.63636 | 22580 ft | 434 kts | 179° |
| 2026-04-25 17:10 | 46.95226 | 16.63989 | 23121 ft | 432 kts | 179° |
| 2026-04-25 17:10 | 46.92234 | 16.64337 | 23647 ft | 430 kts | 179° |
| 2026-04-25 17:11 | 46.89259 | 16.64682 | 24111 ft | 428 kts | 179° |
| 2026-04-25 17:11 | 46.86304 | 16.65020 | 24577 ft | 425 kts | 180° |
| 2026-04-25 17:11 | 46.83358 | 16.65358 | 25005 ft | 424 kts | 180° |
| 2026-04-25 17:11 | 46.80413 | 16.65696 | 25390 ft | 424 kts | 180° |
| 2026-04-25 17:12 | 46.77478 | 16.66038 | 25757 ft | 425 kts | 180° |
| 2026-04-25 17:12 | 46.74518 | 16.66386 | 26121 ft | 425 kts | 180° |
| 2026-04-25 17:12 | 46.71576 | 16.66728 | 26493 ft | 425 kts | 180° |
| 2026-04-25 17:12 | 46.68627 | 16.67071 | 26869 ft | 425 kts | 180° |
| 2026-04-25 17:13 | 46.65680 | 16.67415 | 27222 ft | 425 kts | 180° |
| 2026-04-25 17:13 | 46.64725 | 16.67527 | 27337 ft | 425 kts | 180° |
| 2026-04-25 17:13 | 46.59863 | 16.67127 | 27898 ft | 412 kts | 201° |
| 2026-04-25 17:13 | 46.57207 | 16.65655 | 28238 ft | 408 kts | 208° |
| 2026-04-25 17:14 | 46.54640 | 16.64028 | 28585 ft | 408 kts | 208° |
| 2026-04-25 17:14 | 46.52002 | 16.62366 | 28941 ft | 408 kts | 208° |
| 2026-04-25 17:14 | 46.49420 | 16.60774 | 29294 ft | 408 kts | 207° |
| 2026-04-25 17:14 | 46.46773 | 16.59163 | 29657 ft | 408 kts | 207° |
| 2026-04-25 17:15 | 46.44152 | 16.57576 | 30028 ft | 407 kts | 207° |
| 2026-04-25 17:15 | 46.41545 | 16.56005 | 30343 ft | 406 kts | 207° |
| 2026-04-25 17:15 | 46.38936 | 16.54436 | 30657 ft | 405 kts | 207° |
| 2026-04-25 17:15 | 46.36372 | 16.52894 | 30957 ft | 404 kts | 207° |
| 2026-04-25 17:16 | 46.33787 | 16.51341 | 31288 ft | 402 kts | 207° |
| 2026-04-25 17:16 | 46.31171 | 16.49772 | 31613 ft | 400 kts | 207° |
| 2026-04-25 17:16 | 46.28639 | 16.48253 | 31938 ft | 398 kts | 208° |
| 2026-04-25 17:16 | 46.26089 | 16.46726 | 32270 ft | 396 kts | 208° |
| 2026-04-25 17:17 | 46.23555 | 16.45212 | 32608 ft | 393 kts | 208° |
| 2026-04-25 17:17 | 46.21031 | 16.43703 | 32948 ft | 390 kts | 208° |
| 2026-04-25 17:17 | 46.18530 | 16.42208 | 33244 ft | 388 kts | 208° |
| 2026-04-25 17:17 | 46.16038 | 16.40723 | 33491 ft | 388 kts | 208° |
| 2026-04-25 17:18 | 46.13540 | 16.39235 | 33670 ft | 389 kts | 208° |
| 2026-04-25 17:18 | 46.11035 | 16.37746 | 33817 ft | 391 kts | 208° |
| 2026-04-25 17:18 | 46.08516 | 16.36248 | 33955 ft | 392 kts | 208° |
| 2026-04-25 17:18 | 46.05985 | 16.34738 | 34004 ft | 397 kts | 208° |
| 2026-04-25 17:19 | 46.00809 | 16.31665 | 33982 ft | 408 kts | 207° |
| 2026-04-25 17:19 | 45.95481 | 16.28517 | 33968 ft | 419 kts | 207° |
| 2026-04-25 17:20 | 45.90025 | 16.25292 | 33972 ft | 426 kts | 207° |
| 2026-04-25 17:20 | 45.84539 | 16.22059 | 33968 ft | 427 kts | 207° |
| 2026-04-25 17:21 | 45.79046 | 16.18828 | 33961 ft | 427 kts | 207° |
| 2026-04-25 17:21 | 45.73511 | 16.15576 | 33968 ft | 427 kts | 207° |
| 2026-04-25 17:22 | 45.69870 | 16.13446 | 33955 ft | 427 kts | 207° |
| 2026-04-25 17:22 | 45.62549 | 16.09169 | 33958 ft | 427 kts | 207° |
| 2026-04-25 17:23 | 45.57942 | 16.06483 | 33959 ft | 427 kts | 207° |
| 2026-04-25 17:23 | 45.52436 | 16.03279 | 33960 ft | 427 kts | 207° |
| 2026-04-25 17:24 | 45.46926 | 16.00075 | 33959 ft | 428 kts | 207° |
| 2026-04-25 17:24 | 45.41456 | 15.96905 | 33950 ft | 428 kts | 206° |
| 2026-04-25 17:25 | 45.35896 | 15.93689 | 33961 ft | 429 kts | 206° |
| 2026-04-25 17:25 | 45.30373 | 15.90499 | 33960 ft | 428 kts | 206° |
| 2026-04-25 17:26 | 45.24895 | 15.87341 | 33950 ft | 428 kts | 206° |
| 2026-04-25 17:26 | 45.19375 | 15.84169 | 33966 ft | 428 kts | 206° |
| 2026-04-25 17:27 | 45.13846 | 15.80997 | 33973 ft | 428 kts | 206° |
| 2026-04-25 17:27 | 45.09217 | 15.78345 | 33972 ft | 428 kts | 206° |
| 2026-04-25 17:28 | 45.02791 | 15.74673 | 33977 ft | 429 kts | 206° |
| 2026-04-25 17:28 | 44.97268 | 15.71523 | 33985 ft | 428 kts | 206° |
| 2026-04-25 17:29 | 44.91733 | 15.68375 | 33996 ft | 429 kts | 206° |
| 2026-04-25 17:29 | 44.86198 | 15.65234 | 33986 ft | 429 kts | 206° |
| 2026-04-25 17:30 | 44.80662 | 15.62099 | 34000 ft | 429 kts | 206° |
| 2026-04-25 17:30 | 44.75127 | 15.58970 | 34143 ft | 429 kts | 206° |
| 2026-04-25 17:31 | 44.72354 | 15.57406 | 34256 ft | 429 kts | 206° |
| 2026-04-25 17:31 | 44.69581 | 15.55842 | 34362 ft | 430 kts | 205° |
| 2026-04-25 17:31 | 44.66807 | 15.54280 | 34482 ft | 430 kts | 205° |
| 2026-04-25 17:31 | 44.64029 | 15.52719 | 34598 ft | 430 kts | 205° |
| 2026-04-25 17:32 | 44.61248 | 15.51156 | 34724 ft | 430 kts | 205° |
| 2026-04-25 17:32 | 44.58503 | 15.49614 | 34846 ft | 430 kts | 205° |
| 2026-04-25 17:32 | 44.55725 | 15.48056 | 34960 ft | 431 kts | 205° |
| 2026-04-25 17:32 | 44.52903 | 15.46474 | 35042 ft | 431 kts | 205° |
| 2026-04-25 17:33 | 44.47337 | 15.43360 | 35032 ft | 430 kts | 205° |
| 2026-04-25 17:33 | 44.41812 | 15.40274 | 35022 ft | 431 kts | 205° |
| 2026-04-25 17:34 | 44.36250 | 15.37173 | 35019 ft | 431 kts | 205° |
| 2026-04-25 17:34 | 44.30681 | 15.34077 | 35021 ft | 431 kts | 205° |
| 2026-04-25 17:35 | 44.25108 | 15.30984 | 35024 ft | 431 kts | 205° |
| 2026-04-25 17:35 | 44.19532 | 15.27892 | 35023 ft | 431 kts | 205° |
| 2026-04-25 17:36 | 44.13961 | 15.24817 | 35017 ft | 431 kts | 204° |
| 2026-04-25 17:36 | 44.08376 | 15.21738 | 35023 ft | 432 kts | 204° |
| 2026-04-25 17:37 | 44.02794 | 15.18663 | 35024 ft | 431 kts | 204° |
| 2026-04-25 17:37 | 43.97219 | 15.15602 | 35022 ft | 431 kts | 204° |
| 2026-04-25 17:38 | 43.92580 | 15.13058 | 35027 ft | 431 kts | 204° |
| 2026-04-25 17:38 | 43.86056 | 15.09489 | 35032 ft | 431 kts | 204° |
| 2026-04-25 17:39 | 43.80472 | 15.06441 | 35036 ft | 431 kts | 204° |
| 2026-04-25 17:39 | 43.74886 | 15.03396 | 35036 ft | 431 kts | 204° |
| 2026-04-25 17:40 | 43.69298 | 15.00357 | 35039 ft | 431 kts | 204° |
| 2026-04-25 17:40 | 43.63711 | 14.97322 | 35038 ft | 431 kts | 204° |
| 2026-04-25 17:41 | 43.58119 | 14.94292 | 35037 ft | 432 kts | 204° |
| 2026-04-25 17:41 | 43.52521 | 14.91267 | 35037 ft | 432 kts | 204° |
| 2026-04-25 17:42 | 43.46928 | 14.88249 | 35041 ft | 432 kts | 204° |
| 2026-04-25 17:42 | 43.41333 | 14.85237 | 35039 ft | 432 kts | 203° |
| 2026-04-25 17:43 | 43.35734 | 14.82226 | 35041 ft | 432 kts | 203° |
| 2026-04-25 17:43 | 43.30127 | 14.79226 | 35041 ft | 432 kts | 203° |
| 2026-04-25 17:44 | 43.24496 | 14.76336 | 35039 ft | 432 kts | 202° |
| 2026-04-25 17:44 | 43.18895 | 14.73475 | 35041 ft | 432 kts | 202° |
| 2026-04-25 17:45 | 43.15126 | 14.71545 | 35044 ft | 432 kts | 202° |
| 2026-04-25 17:45 | 43.07628 | 14.67716 | 35035 ft | 432 kts | 202° |
| 2026-04-25 17:46 | 43.01988 | 14.64839 | 35037 ft | 433 kts | 202° |
| 2026-04-25 17:46 | 42.96347 | 14.61970 | 35037 ft | 433 kts | 202° |
| 2026-04-25 17:47 | 42.90692 | 14.59107 | 35040 ft | 433 kts | 202° |
| 2026-04-25 17:47 | 42.85050 | 14.56248 | 35040 ft | 433 kts | 201° |
| 2026-04-25 17:48 | 42.76571 | 14.51954 | 35033 ft | 433 kts | 201° |
| 2026-04-25 17:49 | 42.70921 | 14.49103 | 35033 ft | 433 kts | 201° |
| 2026-04-25 17:49 | 42.65272 | 14.46257 | 35034 ft | 433 kts | 201° |
| 2026-04-25 17:49 | 42.62450 | 14.44837 | 34851 ft | 432 kts | 201° |
| 2026-04-25 17:50 | 42.59636 | 14.43423 | 34553 ft | 432 kts | 201° |
| 2026-04-25 17:50 | 42.56819 | 14.42008 | 34306 ft | 432 kts | 201° |
| 2026-04-25 17:50 | 42.53998 | 14.40595 | 34069 ft | 433 kts | 201° |
| 2026-04-25 17:50 | 42.51172 | 14.39180 | 33795 ft | 433 kts | 201° |
| 2026-04-25 17:51 | 42.48341 | 14.37763 | 33520 ft | 434 kts | 201° |
| 2026-04-25 17:51 | 42.45503 | 14.36343 | 33251 ft | 435 kts | 201° |
| 2026-04-25 17:51 | 42.42656 | 14.34924 | 32985 ft | 436 kts | 201° |
| 2026-04-25 17:51 | 42.39801 | 14.33506 | 32721 ft | 437 kts | 201° |
| 2026-04-25 17:52 | 42.36949 | 14.32085 | 32460 ft | 438 kts | 201° |
| 2026-04-25 17:52 | 42.35047 | 14.31137 | 32289 ft | 439 kts | 201° |
| 2026-04-25 17:52 | 42.31210 | 14.29227 | 31934 ft | 440 kts | 200° |
| 2026-04-25 17:52 | 42.28370 | 14.27819 | 31691 ft | 441 kts | 201° |
| 2026-04-25 17:53 | 42.25450 | 14.26365 | 31440 ft | 442 kts | 201° |
| 2026-04-25 17:53 | 42.22552 | 14.25163 | 31119 ft | 443 kts | 191° |
| 2026-04-25 17:53 | 42.19473 | 14.24919 | 30331 ft | 446 kts | 177° |
| 2026-04-25 17:53 | 42.16364 | 14.25305 | 29378 ft | 450 kts | 175° |
| 2026-04-25 17:54 | 42.13196 | 14.25754 | 28370 ft | 454 kts | 175° |
| 2026-04-25 17:54 | 42.10081 | 14.26150 | 27422 ft | 457 kts | 176° |
| 2026-04-25 17:54 | 42.06907 | 14.26517 | 26450 ft | 460 kts | 176° |
| 2026-04-25 17:54 | 42.03708 | 14.26855 | 25492 ft | 462 kts | 176° |
| 2026-04-25 17:55 | 42.00491 | 14.27178 | 24528 ft | 465 kts | 176° |
| 2026-04-25 17:55 | 41.97249 | 14.27508 | 23535 ft | 469 kts | 176° |
| 2026-04-25 17:55 | 41.93982 | 14.27846 | 22366 ft | 472 kts | 176° |
| 2026-04-25 17:55 | 41.90717 | 14.28187 | 21508 ft | 469 kts | 176° |
| 2026-04-25 17:56 | 41.87480 | 14.28526 | 20924 ft | 465 kts | 176° |
| 2026-04-25 17:56 | 41.84269 | 14.28861 | 20394 ft | 461 kts | 176° |
| 2026-04-25 17:56 | 41.81079 | 14.29196 | 19897 ft | 458 kts | 176° |
| 2026-04-25 17:56 | 41.77909 | 14.29528 | 19410 ft | 456 kts | 176° |
| 2026-04-25 17:57 | 41.74757 | 14.29854 | 18935 ft | 453 kts | 176° |
| 2026-04-25 17:57 | 41.71626 | 14.30179 | 18470 ft | 450 kts | 176° |
| 2026-04-25 17:57 | 41.68512 | 14.30505 | 17965 ft | 448 kts | 176° |
| 2026-04-25 17:57 | 41.67462 | 14.30614 | 17790 ft | 447 kts | 176° |
| 2026-04-25 17:58 | 41.62332 | 14.31147 | 16925 ft | 443 kts | 176° |
| 2026-04-25 17:58 | 41.59272 | 14.31464 | 16419 ft | 438 kts | 176° |
| 2026-04-25 17:58 | 41.56232 | 14.31779 | 15923 ft | 437 kts | 176° |
| 2026-04-25 17:58 | 41.53227 | 14.32088 | 15429 ft | 432 kts | 176° |
| 2026-04-25 17:59 | 41.50234 | 14.32398 | 14948 ft | 430 kts | 176° |
| 2026-04-25 17:59 | 41.47248 | 14.32707 | 14486 ft | 428 kts | 176° |
| 2026-04-25 17:59 | 41.44289 | 14.33014 | 14046 ft | 426 kts | 176° |
| 2026-04-25 17:59 | 41.41331 | 14.33320 | 13596 ft | 425 kts | 176° |
| 2026-04-25 18:00 | 41.39383 | 14.33519 | 13289 ft | 421 kts | 176° |
| 2026-04-25 18:00 | 41.35481 | 14.33919 | 12736 ft | 419 kts | 176° |
| 2026-04-25 18:00 | 41.32594 | 14.34216 | 12357 ft | 414 kts | 176° |
| 2026-04-25 18:00 | 41.29746 | 14.34510 | 11974 ft | 404 kts | 176° |
| 2026-04-25 18:01 | 41.26989 | 14.34791 | 11605 ft | 392 kts | 175° |
| 2026-04-25 18:01 | 41.24310 | 14.35065 | 11239 ft | 380 kts | 176° |
| 2026-04-25 18:01 | 41.21720 | 14.35331 | 11073 ft | 365 kts | 176° |
| 2026-04-25 18:01 | 41.19254 | 14.35590 | 11045 ft | 346 kts | 175° |
| 2026-04-25 18:02 | 41.16965 | 14.36202 | 11040 ft | 327 kts | 160° |
| 2026-04-25 18:02 | 41.14999 | 14.37533 | 11051 ft | 308 kts | 148° |
| 2026-04-25 18:02 | 41.13236 | 14.39009 | 11020 ft | 293 kts | 147° |
| 2026-04-25 18:02 | 41.11564 | 14.40435 | 10917 ft | 279 kts | 146° |
| 2026-04-25 18:03 | 41.10029 | 14.41926 | 10753 ft | 269 kts | 134° |
| 2026-04-25 18:03 | 41.09005 | 14.43943 | 10413 ft | 263 kts | 107° |
| 2026-04-25 18:03 | 41.08774 | 14.46307 | 10070 ft | 258 kts | 81° |
| 2026-04-25 18:03 | 41.09303 | 14.48534 | 9702 ft | 253 kts | 59° |
| 2026-04-25 18:04 | 41.10244 | 14.50500 | 9363 ft | 252 kts | 54° |
| 2026-04-25 18:04 | 41.11225 | 14.52422 | 9067 ft | 252 kts | 54° |
| 2026-04-25 18:04 | 41.12176 | 14.54334 | 8809 ft | 251 kts | 56° |
| 2026-04-25 18:04 | 41.13122 | 14.56272 | 8551 ft | 250 kts | 56° |
| 2026-04-25 18:05 | 41.14055 | 14.58207 | 8302 ft | 249 kts | 56° |
| 2026-04-25 18:05 | 41.14984 | 14.60147 | 8048 ft | 249 kts | 57° |
| 2026-04-25 18:05 | 41.15895 | 14.62092 | 7796 ft | 248 kts | 57° |
| 2026-04-25 18:05 | 41.16802 | 14.64034 | 7560 ft | 247 kts | 57° |
| 2026-04-25 18:06 | 41.17703 | 14.65971 | 7309 ft | 245 kts | 58° |
| 2026-04-25 18:06 | 41.18299 | 14.68041 | 7049 ft | 239 kts | 83° |
| 2026-04-25 18:06 | 41.18088 | 14.70139 | 6945 ft | 227 kts | 115° |
| 2026-04-25 18:06 | 41.17119 | 14.71760 | 6947 ft | 227 kts | 143° |
| 2026-04-25 18:07 | 41.15806 | 14.72917 | 6971 ft | 226 kts | 148° |
| 2026-04-25 18:07 | 41.14459 | 14.73997 | 6983 ft | 226 kts | 149° |
| 2026-04-25 18:07 | 41.13094 | 14.75025 | 6974 ft | 227 kts | 160° |
| 2026-04-25 18:07 | 41.11550 | 14.75277 | 6975 ft | 225 kts | 191° |
| 2026-04-25 18:08 | 41.10170 | 14.74390 | 6980 ft | 223 kts | 223° |
| 2026-04-25 18:08 | 41.09143 | 14.72856 | 6989 ft | 223 kts | 235° |
| 2026-04-25 18:08 | 41.08320 | 14.71119 | 6983 ft | 222 kts | 240° |
| 2026-04-25 18:08 | 41.07512 | 14.69370 | 6991 ft | 223 kts | 239° |
| 2026-04-25 18:09 | 41.06698 | 14.67630 | 7028 ft | 222 kts | 239° |
| 2026-04-25 18:09 | 41.05882 | 14.65885 | 6924 ft | 222 kts | 239° |
| 2026-04-25 18:09 | 41.05340 | 14.64728 | 6761 ft | 216 kts | 239° |
| 2026-04-25 18:09 | 41.04817 | 14.63611 | 6578 ft | 215 kts | 239° |
| 2026-04-25 18:10 | 41.03771 | 14.61377 | 6177 ft | 214 kts | 239° |
| 2026-04-25 18:10 | 41.02991 | 14.59711 | 5864 ft | 212 kts | 239° |
| 2026-04-25 18:10 | 41.02220 | 14.58068 | 5554 ft | 208 kts | 239° |
| 2026-04-25 18:10 | 41.01462 | 14.56448 | 5255 ft | 207 kts | 239° |
| 2026-04-25 18:11 | 41.00707 | 14.54838 | 4964 ft | 204 kts | 239° |
| 2026-04-25 18:11 | 40.99958 | 14.53240 | 4655 ft | 204 kts | 239° |
| 2026-04-25 18:11 | 40.99216 | 14.51657 | 4343 ft | 201 kts | 239° |
| 2026-04-25 18:11 | 40.98475 | 14.50079 | 4055 ft | 201 kts | 239° |
| 2026-04-25 18:12 | 40.97740 | 14.48513 | 3757 ft | 201 kts | 239° |
| 2026-04-25 18:12 | 40.97006 | 14.46949 | 3468 ft | 198 kts | 239° |
| 2026-04-25 18:12 | 40.96283 | 14.45409 | 3173 ft | 198 kts | 238° |
| 2026-04-25 18:12 | 40.95556 | 14.43859 | 2878 ft | 197 kts | 238° |
| 2026-04-25 18:13 | 40.94836 | 14.42326 | 2581 ft | 195 kts | 238° |
| 2026-04-25 18:13 | 40.94130 | 14.40824 | 2291 ft | 187 kts | 238° |
| 2026-04-25 18:13 | 40.93475 | 14.39429 | 2044 ft | 170 kts | 238° |
| 2026-04-25 18:14 | 40.92330 | 14.36991 | 1548 ft | 143 kts | 237° |
| 2026-04-25 18:14 | 40.91821 | 14.35900 | 1351 ft | 137 kts | 236° |
| 2026-04-25 18:14 | 40.91307 | 14.34813 | 1197 ft | 143 kts | 234° |
| 2026-04-25 18:14 | 40.90775 | 14.33674 | 987 ft | 145 kts | 234° |
| 2026-04-25 18:15 | 40.90231 | 14.32536 | 723 ft | 145 kts | 235° |
| 2026-04-25 18:15 | 40.89712 | 14.31416 | 480 ft | 141 kts | 234° |
| 2026-04-25 18:15 | 40.89184 | 14.30303 | 302 ft | 142 kts | 235° |
| 2026-04-25 18:15 | 40.88699 | 14.29278 | 267 ft | 108 kts | 237° |
| 2026-04-25 18:16 | 40.88441 | 14.28733 | 281 ft | 51 kts | 236° |
| 2026-04-25 18:16 | 40.88292 | 14.28417 | 291 ft | 34 kts | 239° |
| 2026-04-25 18:16 | 40.88113 | 14.28046 | 297 ft | 18 kts | 214° |
| 2026-04-25 18:17 | 40.88040 | 14.28070 | 297 ft | 12 kts | 149° |
| 2026-04-25 18:17 | 40.87954 | 14.28102 | 298 ft | 16 kts | 214° |
| 2026-04-25 18:17 | 40.87892 | 14.28011 | 303 ft | 9 kts | 231° |
| 2026-04-25 18:17 | 40.87853 | 14.28000 | 302 ft | 6 kts | 145° |
| 2026-04-25 18:18 | 40.87850 | 14.28003 | 304 ft | 0 kts | 141° |
| 2026-04-25 18:18 | 40.87844 | 14.28010 | 302 ft | 4 kts | 142° |
| 2026-04-25 18:18 | 40.87819 | 14.28036 | 302 ft | 2 kts | 141° |
| 2026-04-25 18:19 | 40.87815 | 14.28041 | 302 ft | 0 kts | 141° |